This is the latest recevied weather packets stored in our database for station/object VK3ABC-13. If no packets are shown the sender has not sent any weather packets the latest 10 day(s).
| Time | Temp. | Humidity | Pressure | Rain* | Wind** | Luminosity | Snow |
|---|---|---|---|---|---|---|---|
| 1778026512 | 15.56° C | 63% | 1016.9 hPa | 0 mm | - | 185 W/m² | - |
| 1778023511 | 15° C | 67% | 1017.3 hPa | 0 mm | - | 105 W/m² | - |
| 1778021412 | 14.44° C | 67% | 1017.5 hPa | 0 mm | - | 70 W/m² | - |
| 1778017511 | 13.89° C | 68% | 1017.5 hPa | 0 mm | - | 19 W/m² | - |
| 1778017212 | 13.89° C | 68% | 1017.5 hPa | 0 mm | - | 19 W/m² | - |
| 1778016613 | 13.89° C | 69% | 1017.4 hPa | 0 mm | - | 12 W/m² | - |
| 1778015412 | 13.89° C | 70% | 1017.4 hPa | 0 mm | - | 0 W/m² | - |
| 1778015111 | 13.89° C | 70% | 1017.4 hPa | 0 mm | - | 0 W/m² | - |
| 1778013911 | 13.89° C | 71% | 1017.5 hPa | 0 mm | - | 0 W/m² | - |
| 1778013613 | 13.89° C | 71% | 1017.4 hPa | 0 mm | - | 0 W/m² | - |
| 1778009412 | 13.89° C | 70% | 1017.6 hPa | 0 mm | - | 0 W/m² | - |
| 1778007312 | 13.89° C | 72% | 1017.8 hPa | 0 mm | - | 0 W/m² | - |
| 1778003711 | 13.33° C | 76% | 1017.8 hPa | 0 mm | - | 0 W/m² | - |
| 1778001612 | 13.33° C | 78% | 1017.9 hPa | 0 mm | - | 0 W/m² | - |
| 1777998612 | 13.33° C | 79% | 1018.3 hPa | 0 mm | - | 0 W/m² | - |
| 1777998310 | 13.33° C | 78% | 1018.3 hPa | 0 mm | - | 0 W/m² | - |
| 1777997710 | 13.33° C | 78% | 1018.4 hPa | 0 mm | - | 0 W/m² | - |
| 1777997412 | 13.33° C | 78% | 1018.5 hPa | 0 mm | - | 0 W/m² | - |
| 1777996212 | 13.33° C | 79% | 1018.7 hPa | 0 mm | - | 0 W/m² | - |
| 1777994411 | 13.33° C | 79% | 1018.9 hPa | 0 mm | - | 0 W/m² | - |
| 1777993812 | 13.33° C | 80% | 1019 hPa | 0 mm | - | 0 W/m² | - |
| 1777992911 | 13.33° C | 80% | 1019 hPa | 0 mm | - | 0 W/m² | - |
| 1777989311 | 12.78° C | 79% | 1019 hPa | 0 mm | - | 0 W/m² | - |
| 1777986911 | 13.33° C | 74% | 1019.1 hPa | 0 mm | - | 0 W/m² | - |
| 1777985412 | 13.89° C | 74% | 1019.3 hPa | 0 mm | - | 0 W/m² | - |
* Rain latest hour (hover to see other rain measurements)
** Current wind speed in m/s (hover to see current wind gust speed)